createdAt,value
2022-10-22T00:04:24.193Z,15.1
2022-10-22T00:09:23.697Z,15.1
2022-10-22T00:14:24.872Z,15.1
2022-10-22T00:19:24.078Z,15.1
2022-10-22T00:24:24.270Z,15.1
2022-10-22T00:34:24.604Z,15.0
2022-10-22T00:39:24.818Z,15.0
2022-10-22T00:44:25.007Z,15.1
2022-10-22T00:49:25.188Z,15.0
2022-10-22T00:54:25.347Z,14.9
2022-10-22T00:59:25.531Z,14.8
2022-10-22T01:04:25.691Z,14.8
2022-10-22T01:19:26.194Z,14.7
2022-10-22T01:24:26.343Z,14.8
2022-10-22T01:29:26.535Z,14.8
2022-10-22T01:34:26.653Z,14.8
2022-10-22T01:39:26.803Z,14.8
2022-10-22T01:44:27.039Z,14.9
2022-10-22T01:49:27.169Z,14.9
2022-10-22T01:59:27.520Z,14.7
2022-10-22T02:04:27.676Z,14.5
2022-10-22T02:09:27.881Z,14.4
2022-10-22T02:14:28.091Z,14.2
2022-10-22T02:19:28.220Z,14.1
2022-10-22T02:24:28.359Z,14.0
2022-10-22T02:29:28.515Z,13.9
2022-10-22T02:34:32.674Z,13.8
2022-10-22T02:39:28.772Z,13.8
2022-10-22T02:49:29.025Z,13.6
2022-10-22T02:54:29.142Z,13.5
2022-10-22T02:59:31.753Z,13.4
2022-10-22T03:04:29.378Z,13.4
2022-10-22T03:09:29.533Z,13.4
2022-10-22T03:14:29.654Z,13.3
2022-10-22T03:19:29.738Z,13.4
2022-10-22T03:24:31.913Z,13.4
2022-10-22T03:29:30.035Z,13.4
2022-10-22T03:34:30.123Z,13.4
2022-10-22T03:39:30.275Z,13.4
2022-10-22T03:44:30.392Z,13.4
2022-10-22T03:49:30.491Z,13.3
2022-10-22T03:54:30.636Z,13.1
2022-10-22T03:59:33.165Z,12.9
2022-10-22T04:04:30.791Z,12.8
2022-10-22T04:09:30.906Z,12.6
2022-10-22T04:19:31.028Z,12.4
2022-10-22T04:24:31.122Z,12.4
2022-10-22T04:34:33.264Z,12.1
2022-10-22T04:39:31.404Z,12.0
2022-10-22T04:44:31.447Z,11.9
2022-10-22T04:49:31.459Z,11.8
2022-10-22T04:54:33.125Z,11.7
2022-10-22T04:59:31.490Z,11.7
2022-10-22T05:04:31.569Z,11.6
2022-10-22T05:09:31.637Z,11.6
2022-10-22T05:14:31.641Z,11.4
2022-10-22T05:19:31.701Z,11.3
2022-10-22T05:24:31.727Z,11.3
2022-10-22T05:29:31.818Z,11.2
2022-10-22T05:34:31.852Z,11.2
2022-10-22T05:39:31.937Z,11.2
2022-10-22T05:44:31.943Z,11.2
2022-10-22T05:49:31.957Z,11.2
2022-10-22T05:54:31.976Z,11.1
2022-10-22T05:59:32.074Z,11.1
2022-10-22T06:04:34.031Z,11.0
2022-10-22T06:09:32.108Z,11.0
2022-10-22T06:14:32.105Z,10.9
2022-10-22T06:19:32.198Z,10.8
2022-10-22T06:24:32.191Z,10.8
2022-10-22T06:29:32.254Z,10.8
2022-10-22T06:34:32.297Z,10.7
2022-10-22T06:39:32.323Z,10.7
2022-10-22T06:44:32.396Z,10.7
2022-10-22T06:49:32.394Z,10.6
2022-10-22T06:54:32.427Z,10.5
2022-10-22T06:59:32.413Z,10.5
2022-10-22T07:14:32.471Z,10.5
2022-10-22T07:19:32.532Z,10.4
2022-10-22T07:29:32.630Z,10.6
2022-10-22T07:34:38.443Z,10.7
2022-10-22T07:39:32.677Z,10.8
2022-10-22T07:44:32.729Z,10.9
2022-10-22T07:49:32.804Z,11.0
2022-10-22T07:54:32.916Z,11.1
2022-10-22T07:59:35.373Z,11.4
2022-10-22T08:04:32.933Z,11.5
2022-10-22T08:09:33.002Z,11.8
2022-10-22T08:14:33.088Z,12.0
2022-10-22T08:19:33.165Z,12.3
2022-10-22T08:24:33.227Z,12.7
2022-10-22T08:29:33.354Z,13.0
2022-10-22T08:34:33.403Z,13.3
2022-10-22T08:39:33.528Z,13.6
2022-10-22T08:44:33.641Z,13.8
2022-10-22T08:49:36.048Z,14.0
2022-10-22T08:54:35.949Z,14.2
2022-10-22T08:59:34.086Z,14.4
2022-10-22T09:04:34.198Z,14.6
2022-10-22T09:09:34.378Z,14.9
2022-10-22T09:14:34.573Z,15.1
2022-10-22T09:19:36.757Z,15.2
2022-10-22T09:24:34.947Z,15.4
2022-10-22T09:29:37.705Z,15.7
2022-10-22T09:34:35.219Z,15.9
2022-10-22T09:39:35.593Z,16.0
2022-10-22T09:44:35.659Z,16.2
2022-10-22T09:49:36.061Z,16.4
2022-10-22T09:54:36.089Z,16.6
2022-10-22T09:59:36.471Z,16.8
2022-10-22T10:04:36.529Z,16.9
2022-10-22T10:09:36.947Z,17.0
2022-10-22T10:14:37.171Z,17.2
2022-10-22T10:19:37.446Z,17.6
2022-10-22T10:24:37.666Z,17.5
2022-10-22T10:34:38.240Z,17.5
2022-10-22T10:39:38.481Z,17.6
2022-10-22T10:44:38.712Z,17.6
2022-10-22T10:49:38.988Z,17.8
2022-10-22T10:59:39.520Z,18.3
2022-10-22T11:04:39.777Z,18.4
2022-10-22T11:09:40.122Z,18.2
2022-10-22T11:14:40.422Z,18.3
2022-10-22T11:19:51.013Z,18.1
2022-10-22T11:24:43.524Z,18.2
2022-10-22T11:29:41.286Z,18.2
2022-10-22T11:34:41.518Z,18.5
2022-10-22T11:39:41.852Z,18.3
2022-10-22T11:44:42.190Z,18.2
2022-10-22T11:49:42.377Z,18.2
2022-10-22T11:54:42.691Z,18.2
2022-10-22T11:59:42.940Z,18.1
2022-10-22T12:04:43.340Z,18.1
2022-10-22T12:09:43.595Z,18.1
2022-10-22T12:14:43.826Z,18.2
2022-10-22T12:19:44.124Z,18.2
2022-10-22T12:24:44.367Z,18.1
2022-10-22T12:29:44.714Z,18.5
2022-10-22T12:34:44.998Z,18.4
2022-10-22T12:39:45.299Z,18.3
2022-10-22T12:44:45.611Z,18.2
2022-10-22T12:49:45.920Z,18.4
2022-10-22T12:54:50.223Z,18.8
2022-10-22T12:59:49.656Z,18.8
2022-10-22T13:04:46.890Z,18.8
2022-10-22T13:09:49.182Z,18.8
2022-10-22T13:14:48.590Z,18.6
2022-10-22T13:19:47.831Z,18.6
2022-10-22T13:24:48.358Z,18.6
2022-10-22T13:29:48.473Z,18.6
2022-10-22T13:34:48.823Z,18.4
2022-10-22T13:39:49.276Z,18.7
2022-10-22T13:44:49.457Z,18.9
2022-10-22T13:49:49.797Z,18.8
2022-10-22T13:54:50.076Z,18.9
2022-10-22T13:59:50.390Z,18.9
2022-10-22T14:04:50.721Z,18.8
2022-10-22T14:09:51.050Z,18.4
2022-10-22T14:14:51.652Z,18.6
2022-10-22T14:19:51.634Z,18.6
2022-10-22T14:24:51.954Z,18.6
2022-10-22T14:29:54.009Z,18.5
2022-10-22T14:34:53.337Z,18.4
2022-10-22T14:39:54.873Z,18.3
2022-10-22T14:44:53.090Z,18.4
2022-10-22T14:49:53.422Z,18.6
2022-10-22T14:54:53.715Z,18.6
2022-10-22T14:59:56.012Z,18.9
2022-10-22T15:09:54.513Z,18.9
2022-10-22T15:14:54.957Z,18.8
2022-10-22T15:19:57.149Z,18.6
2022-10-22T15:24:55.488Z,18.3
2022-10-22T15:34:56.150Z,18.6
2022-10-22T15:39:56.495Z,18.4
2022-10-22T15:44:56.819Z,18.3
2022-10-22T15:49:57.212Z,18.3
2022-10-22T15:54:57.472Z,18.3
2022-10-22T15:59:59.079Z,18.2
2022-10-22T16:09:58.301Z,17.9
2022-10-22T16:14:58.618Z,17.8
2022-10-22T16:19:59.030Z,17.6
2022-10-22T16:24:59.141Z,17.5
2022-10-22T16:29:59.391Z,17.4
2022-10-22T16:34:59.841Z,17.3
2022-10-22T16:40:03.012Z,17.2
2022-10-22T16:50:00.431Z,17.1
2022-10-22T16:55:00.707Z,17.1
2022-10-22T17:00:00.903Z,16.9
2022-10-22T17:05:01.239Z,17.1
2022-10-22T17:10:01.407Z,16.9
2022-10-22T17:15:01.656Z,16.9
2022-10-22T17:20:02.667Z,16.9
2022-10-22T17:25:02.406Z,16.8
2022-10-22T17:30:02.393Z,16.9
2022-10-22T17:35:02.592Z,16.8
2022-10-22T17:40:02.839Z,16.7
2022-10-22T17:45:05.030Z,16.5
2022-10-22T17:50:03.265Z,16.4
2022-10-22T17:55:03.418Z,16.3
2022-10-22T18:00:03.634Z,16.3
2022-10-22T18:05:03.820Z,16.3
2022-10-22T18:10:04.023Z,16.2
2022-10-22T18:15:04.214Z,16.3
2022-10-22T18:20:04.422Z,16.4
2022-10-22T18:25:04.638Z,16.4
2022-10-22T18:30:06.833Z,16.4
2022-10-22T18:35:05.050Z,16.4
2022-10-22T18:40:05.270Z,16.4
2022-10-22T18:45:05.506Z,16.2
2022-10-22T18:50:08.328Z,16.2
2022-10-22T18:55:05.918Z,16.2
2022-10-22T19:00:06.136Z,16.2
2022-10-22T19:10:06.567Z,16.2
2022-10-22T19:15:06.827Z,16.2
2022-10-22T19:20:07.022Z,16.2
2022-10-22T19:25:09.693Z,16.3
2022-10-22T19:30:07.451Z,16.3
2022-10-22T19:35:07.681Z,16.3
2022-10-22T19:40:08.090Z,16.4
2022-10-22T19:45:08.142Z,16.4
2022-10-22T19:50:08.397Z,16.4
2022-10-22T19:55:08.606Z,16.4
2022-10-22T20:05:09.106Z,16.4
2022-10-22T20:10:09.336Z,16.4
2022-10-22T20:15:09.606Z,16.4
2022-10-22T20:20:09.817Z,16.4
2022-10-22T20:25:10.087Z,16.4
2022-10-22T20:30:10.355Z,16.3
2022-10-22T20:35:10.510Z,16.3
2022-10-22T20:40:12.838Z,16.2
2022-10-22T20:45:10.975Z,16.2
2022-10-22T20:50:11.231Z,16.1
2022-10-22T20:55:11.519Z,16.2
2022-10-22T21:00:14.196Z,16.1
2022-10-22T21:05:11.832Z,16.1
2022-10-22T21:15:12.785Z,16.1
2022-10-22T21:20:12.483Z,16.1
2022-10-22T21:25:12.874Z,16.0
2022-10-22T21:30:12.895Z,16.0
2022-10-22T21:35:13.135Z,15.9
2022-10-22T21:40:13.341Z,16.0
2022-10-22T21:45:15.617Z,16.0
2022-10-22T21:50:13.768Z,16.1
2022-10-22T21:55:14.797Z,16.1
2022-10-22T22:00:14.155Z,16.2
2022-10-22T22:05:14.348Z,16.2
2022-10-22T22:10:14.645Z,16.2
2022-10-22T22:15:18.813Z,16.3
2022-10-22T22:20:15.015Z,16.3
2022-10-22T22:30:15.529Z,16.4
2022-10-22T22:35:15.801Z,16.4
2022-10-22T22:40:16.000Z,16.4
2022-10-22T22:45:16.273Z,16.4
2022-10-22T22:50:16.539Z,16.4
2022-10-22T22:55:16.813Z,16.4
2022-10-22T23:00:17.035Z,16.4
2022-10-22T23:05:17.269Z,16.4
2022-10-22T23:10:17.465Z,16.4
2022-10-22T23:15:17.749Z,16.5
2022-10-22T23:20:17.931Z,16.4
2022-10-22T23:25:18.163Z,16.4
2022-10-22T23:30:18.372Z,16.4
2022-10-22T23:35:18.626Z,16.4
2022-10-22T23:40:18.865Z,16.4
2022-10-22T23:45:19.119Z,16.3
2022-10-22T23:50:19.340Z,16.3
2022-10-22T23:55:19.598Z,16.3
